Impacts METAR Board
IDs:

KPDX - Portland Intl Arpt, OR, US

Updated at: 1100 UTC 15 Dec 2018
Potential Impact None Slight Moderate High
Time 14/23Z 15/00Z 15/01Z 15/02Z 15/03Z 15/04Z 15/05Z 15/06Z 15/07Z 15/08Z 15/09Z 15/10Z 15/11Z
Temp51 51 49 48 48 47 46 45 43 39 42 41 42
Dewpt40 39 41 42 40 39 39 37 36 35 37 37 37
Altim29.64 29.68 29.76 29.82 29.88 29.94 29.98 30.03 30.06 30.07 30.07 30.08 30.09
VIS10 10 9 10 10 10 10 10 10 10 10 10 10
CIG70 130 70 90 100 50 49 -- -- -- 210 -- 170
CoverOVCOVCOVCOVCBKNBKNBKNSCTFEWFEWBKNSCTOVC
FltCatVFRVFRVFRVFRVFRVFRVFRVFRVFRVFRVFRVFRVFR
WX--------------------------
WDir160180210220210200190200210160190900
WSpd14 20 24 14 12 11 11 9 8 6 4 4 0
WGst20 26 37 20 -- -- -- -- -- -- -- -- --
Raw hourly METARs
KPDX 142253Z 16014G20KT 10SM SCT055 BKN070 BKN090 OVC150 11/04 A2964 RMK AO2 SLP037 T01060044
KPDX 142353Z 18020G26KT 10SM FEW050 SCT110 BKN130 OVC250 11/04 A2968 RMK AO2 PK WND 18030/2333 SLP050 T01060039 10133 20083 51040
KPDX 150053Z 21024G37KT 9SM FEW027 SCT036 BKN070 OVC150 09/05 A2976 RMK AO2 PK WND 21040/0030 RAB12E26 PRESRR SLP077 P0000 T00940050
KPDX 150153Z 22014G20KT 10SM FEW020 SCT065 BKN090 OVC130 09/06 A2982 RMK AO2 PK WND 20032/0116 RAB0054E24 SLP095 P0000 T00890056
KPDX 150253Z 21012KT 10SM SCT065 BKN100 BKN130 BKN160 09/04 A2988 RMK AO2 SLP116 60000 T00890044 51065
KPDX 150353Z 20011KT 10SM SCT035 BKN050 BKN090 08/04 A2994 RMK AO2 SLP137 T00830039
KPDX 150453Z 19011KT 10SM SCT042 BKN049 BKN120 08/04 A2998 RMK AO2 SLP152 T00780039
KPDX 150553Z 20009KT 10SM FEW037 SCT048 SCT110 07/03 A3003 RMK AO2 SLP168 60000 T00720028 10111 20072 51052
KPDX 150653Z 21008KT 10SM FEW026 06/02 A3006 RMK AO2 SLP178 T00610022
KPDX 150753Z 16006KT 10SM FEW200 04/02 A3007 RMK AO2 SLP180 T00390017 401330039
KPDX 150853Z 19004KT 10SM BKN210 06/03 A3007 RMK AO2 SLP181 T00560028 51014
KPDX 150953Z 09004KT 10SM SCT210 05/03 A3008 RMK AO2 SLP184 T00500028
KPDX 151053Z 00000KT 10SM OVC170 06/03 A3009 RMK AO2 SLP188 T00560028



Page loaded:  11:41 UTC  |   03:41 AM Pacific  |   04:41 AM Mountain  |   05:41 AM Central  |   06:41 AM Eastern

 

ADVISORIES

FORECASTS

FORECASTS

OBSERVATIONS

USER TOOLS

ABOUT US